sensor_id;sensor_type;location;lat;lon;timestamp;pressure;altitude;pressure_sealevel;temperature;humidity
28630;BME280;15817;42.130;24.762;2023-06-26T00:00:47;99333.41;;;24.32;88.72
28630;BME280;15817;42.130;24.762;2023-06-26T00:03:13;99323.63;;;24.29;88.28
28630;BME280;15817;42.130;24.762;2023-06-26T00:05:41;99330.03;;;24.28;88.86
28630;BME280;15817;42.130;24.762;2023-06-26T00:08:07;99321.22;;;24.25;89.34
28630;BME280;15817;42.130;24.762;2023-06-26T00:10:33;99319.69;;;24.21;88.20
28630;BME280;15817;42.130;24.762;2023-06-26T00:12:59;99318.59;;;24.23;88.50
28630;BME280;15817;42.130;24.762;2023-06-26T00:15:25;99313.25;;;24.22;89.53
28630;BME280;15817;42.130;24.762;2023-06-26T00:17:51;99318.03;;;24.18;89.09
28630;BME280;15817;42.130;24.762;2023-06-26T00:20:17;99330.47;;;24.22;89.43
28630;BME280;15817;42.130;24.762;2023-06-26T00:22:44;99317.06;;;24.19;89.74
28630;BME280;15817;42.130;24.762;2023-06-26T00:25:10;99319.88;;;24.17;89.38
28630;BME280;15817;42.130;24.762;2023-06-26T00:27:36;99329.13;;;24.15;89.24
28630;BME280;15817;42.130;24.762;2023-06-26T00:30:03;99339.88;;;24.16;89.45
28630;BME280;15817;42.130;24.762;2023-06-26T00:32:29;99334.56;;;24.15;89.73
28630;BME280;15817;42.130;24.762;2023-06-26T00:34:55;99331.06;;;24.13;89.77
28630;BME280;15817;42.130;24.762;2023-06-26T00:37:20;99339.88;;;24.16;89.43
28630;BME280;15817;42.130;24.762;2023-06-26T00:39:47;99332.59;;;24.17;89.46
28630;BME280;15817;42.130;24.762;2023-06-26T00:42:13;99329.13;;;24.15;89.18
28630;BME280;15817;42.130;24.762;2023-06-26T00:44:38;99338.91;;;24.17;89.81
28630;BME280;15817;42.130;24.762;2023-06-26T00:47:04;99325.53;;;24.14;89.84
28630;BME280;15817;42.130;24.762;2023-06-26T00:49:30;99333.88;;;24.11;90.52
28630;BME280;15817;42.130;24.762;2023-06-26T00:51:56;99327.72;;;24.09;90.75
28630;BME280;15817;42.130;24.762;2023-06-26T00:54:22;99321.72;;;24.04;90.65
28630;BME280;15817;42.130;24.762;2023-06-26T00:56:48;99338.91;;;24.05;90.85
28630;BME280;15817;42.130;24.762;2023-06-26T00:59:14;99338.03;;;24.04;91.20
28630;BME280;15817;42.130;24.762;2023-06-26T01:01:40;99332.38;;;23.95;91.50
28630;BME280;15817;42.130;24.762;2023-06-26T01:04:09;99330.63;;;23.94;91.94
28630;BME280;15817;42.130;24.762;2023-06-26T01:06:47;99320.94;;;23.90;92.21
28630;BME280;15817;42.130;24.762;2023-06-26T01:09:19;99338.34;;;23.87;92.78
28630;BME280;15817;42.130;24.762;2023-06-26T01:11:46;99325.81;;;23.85;92.83
28630;BME280;15817;42.130;24.762;2023-06-26T01:14:12;99317.69;;;23.85;92.82
28630;BME280;15817;42.130;24.762;2023-06-26T01:16:39;99324.97;;;23.84;92.59
28630;BME280;15817;42.130;24.762;2023-06-26T01:19:19;99324.19;;;23.82;92.95
28630;BME280;15817;42.130;24.762;2023-06-26T01:21:54;99314.41;;;23.79;93.47
28630;BME280;15817;42.130;24.762;2023-06-26T01:24:24;99319.94;;;23.78;93.42
28630;BME280;15817;42.130;24.762;2023-06-26T01:26:53;99322.53;;;23.79;93.64
28630;BME280;15817;42.130;24.762;2023-06-26T01:29:19;99318.09;;;23.78;93.61
28630;BME280;15817;42.130;24.762;2023-06-26T01:31:47;99323.97;;;23.85;94.04
28630;BME280;15817;42.130;24.762;2023-06-26T01:34:18;99308.09;;;23.79;93.63
28630;BME280;15817;42.130;24.762;2023-06-26T01:36:45;99314.50;;;23.78;94.34
28630;BME280;15817;42.130;24.762;2023-06-26T01:39:19;99310.03;;;23.77;94.15
28630;BME280;15817;42.130;24.762;2023-06-26T01:41:45;99307.84;;;23.69;94.76
28630;BME280;15817;42.130;24.762;2023-06-26T01:44:30;99307.75;;;23.71;94.51
28630;BME280;15817;42.130;24.762;2023-06-26T01:47:02;99310.38;;;23.72;94.43
28630;BME280;15817;42.130;24.762;2023-06-26T01:52:14;99301.22;;;23.61;95.13
28630;BME280;15817;42.130;24.762;2023-06-26T01:54:55;99295.91;;;23.59;95.21
28630;BME280;15817;42.130;24.762;2023-06-26T01:57:21;99310.34;;;23.60;94.70
28630;BME280;15817;42.130;24.762;2023-06-26T01:59:50;99308.06;;;23.54;95.57
28630;BME280;15817;42.130;24.762;2023-06-26T02:02:17;99304.34;;;23.55;95.20
28630;BME280;15817;42.130;24.762;2023-06-26T02:04:43;99303.47;;;23.54;95.61
28630;BME280;15817;42.130;24.762;2023-06-26T02:07:09;99306.97;;;23.56;95.37
28630;BME280;15817;42.130;24.762;2023-06-26T02:09:35;99313.34;;;23.55;95.40
28630;BME280;15817;42.130;24.762;2023-06-26T02:12:01;99303.59;;;23.53;95.36
28630;BME280;15817;42.130;24.762;2023-06-26T02:14:26;99306.97;;;23.56;95.52
28630;BME280;15817;42.130;24.762;2023-06-26T02:16:52;99311.41;;;23.57;95.68
28630;BME280;15817;42.130;24.762;2023-06-26T02:19:18;99319.47;;;23.59;94.95
28630;BME280;15817;42.130;24.762;2023-06-26T02:21:49;99319.25;;;23.62;95.57
28630;BME280;15817;42.130;24.762;2023-06-26T02:24:15;99305.97;;;23.57;95.34
28630;BME280;15817;42.130;24.762;2023-06-26T02:26:41;99303.28;;;23.57;95.46
28630;BME280;15817;42.130;24.762;2023-06-26T02:29:10;99315.78;;;23.60;95.36
28630;BME280;15817;42.130;24.762;2023-06-26T02:31:39;99298.81;;;23.56;95.47
28630;BME280;15817;42.130;24.762;2023-06-26T02:34:04;99304.34;;;23.55;96.41
28630;BME280;15817;42.130;24.762;2023-06-26T02:36:32;99300.38;;;23.46;96.50
28630;BME280;15817;42.130;24.762;2023-06-26T02:38:58;99289.41;;;23.47;96.46
28630;BME280;15817;42.130;24.762;2023-06-26T02:41:24;99295.63;;;23.50;96.67
28630;BME280;15817;42.130;24.762;2023-06-26T02:43:50;99302.91;;;23.49;96.65
28630;BME280;15817;42.130;24.762;2023-06-26T02:46:17;99304.31;;;23.42;97.08
28630;BME280;15817;42.130;24.762;2023-06-26T02:48:42;99310.38;;;23.45;96.79
28630;BME280;15817;42.130;24.762;2023-06-26T02:51:08;99297.22;;;23.39;96.89
28630;BME280;15817;42.130;24.762;2023-06-26T02:53:34;99299.84;;;23.41;97.21
28630;BME280;15817;42.130;24.762;2023-06-26T02:56:00;99298.97;;;23.40;97.09
28630;BME280;15817;42.130;24.762;2023-06-26T02:58:25;99306.25;;;23.40;97.23
28630;BME280;15817;42.130;24.762;2023-06-26T03:00:51;99299.25;;;23.36;97.50
28630;BME280;15817;42.130;24.762;2023-06-26T03:03:19;99301.78;;;23.39;97.03
28630;BME280;15817;42.130;24.762;2023-06-26T03:05:45;99306.00;;;23.43;96.43
28630;BME280;15817;42.130;24.762;2023-06-26T03:08:11;99316.88;;;23.43;96.04
28630;BME280;15817;42.130;24.762;2023-06-26T03:10:37;99324.63;;;23.49;96.12
28630;BME280;15817;42.130;24.762;2023-06-26T03:13:03;99312.31;;;23.43;95.71
28630;BME280;15817;42.130;24.762;2023-06-26T03:15:29;99315.69;;;23.47;96.17
28630;BME280;15817;42.130;24.762;2023-06-26T03:17:54;99321.22;;;23.45;96.09
28630;BME280;15817;42.130;24.762;2023-06-26T03:20:26;99315.91;;;23.44;95.73
28630;BME280;15817;42.130;24.762;2023-06-26T03:22:54;99312.31;;;23.43;95.74
28630;BME280;15817;42.130;24.762;2023-06-26T03:25:21;99318.94;;;23.39;95.18
28630;BME280;15817;42.130;24.762;2023-06-26T03:27:48;99329.91;;;23.38;95.68
28630;BME280;15817;42.130;24.762;2023-06-26T03:30:15;99326.75;;;23.44;96.00
28630;BME280;15817;42.130;24.762;2023-06-26T03:32:43;99329.78;;;23.39;95.71
28630;BME280;15817;42.130;24.762;2023-06-26T03:35:10;99329.91;;;23.38;96.09
28630;BME280;15817;42.130;24.762;2023-06-26T03:37:36;99326.50;;;23.34;96.07
28630;BME280;15817;42.130;24.762;2023-06-26T03:40:02;99325.00;;;23.43;95.99
28630;BME280;15817;42.130;24.762;2023-06-26T03:42:30;99324.13;;;23.42;95.99
28630;BME280;15817;42.130;24.762;2023-06-26T03:44:56;99328.50;;;23.45;95.67
28630;BME280;15817;42.130;24.762;2023-06-26T03:47:21;99324.91;;;23.44;96.35
28630;BME280;15817;42.130;24.762;2023-06-26T03:49:47;99320.69;;;23.40;96.03
28630;BME280;15817;42.130;24.762;2023-06-26T03:52:13;99325.00;;;23.43;96.14
28630;BME280;15817;42.130;24.762;2023-06-26T03:54:39;99315.91;;;23.44;95.62
28630;BME280;15817;42.130;24.762;2023-06-26T03:57:04;99326.22;;;23.39;95.55
28630;BME280;15817;42.130;24.762;2023-06-26T03:59:30;99316.22;;;23.39;95.45
28630;BME280;15817;42.130;24.762;2023-06-26T04:01:56;99324.03;;;23.44;95.75
28630;BME280;15817;42.130;24.762;2023-06-26T04:04:22;99315.03;;;23.43;95.68
28630;BME280;15817;42.130;24.762;2023-06-26T04:06:48;99313.09;;;23.45;95.69
28630;BME280;15817;42.130;24.762;2023-06-26T04:09:13;99316.47;;;23.49;96.49
28630;BME280;15817;42.130;24.762;2023-06-26T04:11:39;99315.78;;;23.45;95.82
28630;BME280;15817;42.130;24.762;2023-06-26T04:14:05;99313.84;;;23.47;95.48
28630;BME280;15817;42.130;24.762;2023-06-26T04:16:31;99317.28;;;23.51;94.91
28630;BME280;15817;42.130;24.762;2023-06-26T04:18:56;99321.84;;;23.51;94.88
28630;BME280;15817;42.130;24.762;2023-06-26T04:21:24;99327.81;;;23.56;95.00
28630;BME280;15817;42.130;24.762;2023-06-26T04:23:50;99314.22;;;23.56;94.50
28630;BME280;15817;42.130;24.762;2023-06-26T04:26:16;99320.31;;;23.59;94.27
28630;BME280;15817;42.130;24.762;2023-06-26T04:28:42;99320.31;;;23.59;94.59
28630;BME280;15817;42.130;24.762;2023-06-26T04:31:08;99310.25;;;23.61;94.98
28630;BME280;15817;42.130;24.762;2023-06-26T04:33:35;99308.31;;;23.63;94.85
28630;BME280;15817;42.130;24.762;2023-06-26T04:36:05;99316.97;;;23.68;94.51
28630;BME280;15817;42.130;24.762;2023-06-26T04:38:32;99308.19;;;23.65;94.44
28630;BME280;15817;42.130;24.762;2023-06-26T04:40:57;99319.69;;;23.68;93.49
28630;BME280;15817;42.130;24.762;2023-06-26T04:43:26;99312.75;;;23.64;93.21
28630;BME280;15817;42.130;24.762;2023-06-26T04:45:52;99319.69;;;23.68;93.88
28630;BME280;15817;42.130;24.762;2023-06-26T04:48:18;99322.59;;;23.65;93.00
28630;BME280;15817;42.130;24.762;2023-06-26T04:50:45;99321.97;;;23.62;93.19
28630;BME280;15817;42.130;24.762;2023-06-26T04:53:18;99327.31;;;23.63;93.76
28630;BME280;15817;42.130;24.762;2023-06-26T04:55:43;99337.94;;;23.66;93.46
28630;BME280;15817;42.130;24.762;2023-06-26T04:58:11;99337.94;;;23.66;94.66
28630;BME280;15817;42.130;24.762;2023-06-26T05:00:44;99339.69;;;23.67;93.02
28630;BME280;15817;42.130;24.762;2023-06-26T05:03:11;99349.06;;;23.76;93.06
28630;BME280;15817;42.130;24.762;2023-06-26T05:05:37;99339.47;;;23.70;93.26
28630;BME280;15817;42.130;24.762;2023-06-26T05:08:23;99346.56;;;23.73;93.21
28630;BME280;15817;42.130;24.762;2023-06-26T05:10:53;99359.69;;;23.79;93.17
28630;BME280;15817;42.130;24.762;2023-06-26T05:13:39;99353.41;;;23.78;92.33
28630;BME280;15817;42.130;24.762;2023-06-26T05:16:05;99360.28;;;23.84;92.24
28630;BME280;15817;42.130;24.762;2023-06-26T05:18:35;99361.91;;;23.87;91.50
28630;BME280;15817;42.130;24.762;2023-06-26T05:21:02;99368.94;;;23.89;90.97
28630;BME280;15817;42.130;24.762;2023-06-26T05:23:32;99380.59;;;23.91;91.15
28630;BME280;15817;42.130;24.762;2023-06-26T05:25:59;99372.34;;;23.93;91.18
28630;BME280;15817;42.130;24.762;2023-06-26T05:28:25;99375.41;;;23.88;89.23
28630;BME280;15817;42.130;24.762;2023-06-26T05:30:53;99376.03;;;23.92;88.80
28630;BME280;15817;42.130;24.762;2023-06-26T05:33:21;99382.03;;;23.97;89.64
28630;BME280;15817;42.130;24.762;2023-06-26T05:35:49;99373.78;;;23.98;88.51
28630;BME280;15817;42.130;24.762;2023-06-26T05:38:17;99376.59;;;23.97;88.28
28630;BME280;15817;42.130;24.762;2023-06-26T05:40:43;99384.06;;;23.93;88.55
28630;BME280;15817;42.130;24.762;2023-06-26T05:43:09;99367.25;;;23.88;87.50
28630;BME280;15817;42.130;24.762;2023-06-26T05:45:35;99371.66;;;23.89;88.24
28630;BME280;15817;42.130;24.762;2023-06-26T05:48:01;99374.19;;;23.92;88.05
28630;BME280;15817;42.130;24.762;2023-06-26T05:50:28;99370.50;;;23.93;88.47
28630;BME280;15817;42.130;24.762;2023-06-26T05:52:54;99375.63;;;23.98;87.01
28630;BME280;15817;42.130;24.762;2023-06-26T05:55:31;99365.41;;;24.01;87.41
28630;BME280;15817;42.130;24.762;2023-06-26T05:58:02;99366.16;;;24.03;86.99
28630;BME280;15817;42.130;24.762;2023-06-26T06:00:31;99378.13;;;24.13;86.42
28630;BME280;15817;42.130;24.762;2023-06-26T06:03:00;99372.94;;;24.10;85.24
28630;BME280;15817;42.130;24.762;2023-06-26T06:05:29;99371.53;;;24.17;85.31
28630;BME280;15817;42.130;24.762;2023-06-26T06:07:54;99378.09;;;24.28;85.04
28630;BME280;15817;42.130;24.762;2023-06-26T06:10:23;99365.56;;;24.25;84.93
28630;BME280;15817;42.130;24.762;2023-06-26T06:12:52;99371.69;;;24.29;85.22
28630;BME280;15817;42.130;24.762;2023-06-26T06:15:19;99376.81;;;24.33;85.71
28630;BME280;15817;42.130;24.762;2023-06-26T06:17:45;99383.84;;;24.36;85.24
28630;BME280;15817;42.130;24.762;2023-06-26T06:20:11;99371.78;;;24.40;85.83
28630;BME280;15817;42.130;24.762;2023-06-26T06:22:46;99382.97;;;24.48;85.98
28630;BME280;15817;42.130;24.762;2023-06-26T06:25:29;99386.78;;;24.58;85.28
28630;BME280;15817;42.130;24.762;2023-06-26T06:27:55;99379.50;;;24.59;84.90
28630;BME280;15817;42.130;24.762;2023-06-26T06:30:21;99377.75;;;24.58;85.50
28630;BME280;15817;42.130;24.762;2023-06-26T06:32:46;99378.75;;;24.57;84.97
28630;BME280;15817;42.130;24.762;2023-06-26T06:35:17;99381.50;;;24.57;83.90
28630;BME280;15817;42.130;24.762;2023-06-26T06:37:49;99374.50;;;24.52;83.91
28630;BME280;15817;42.130;24.762;2023-06-26T06:40:18;99373.84;;;24.49;84.15
28630;BME280;15817;42.130;24.762;2023-06-26T06:42:44;99375.28;;;24.54;83.90
28630;BME280;15817;42.130;24.762;2023-06-26T06:45:09;99377.75;;;24.58;83.13
28630;BME280;15817;42.130;24.762;2023-06-26T06:47:39;99367.22;;;24.53;83.63
28630;BME280;15817;42.130;24.762;2023-06-26T06:50:05;99382.22;;;24.59;82.87
28630;BME280;15817;42.130;24.762;2023-06-26T06:52:37;99381.50;;;24.57;82.40
28630;BME280;15817;42.130;24.762;2023-06-26T06:55:07;99376.03;;;24.57;82.63
28630;BME280;15817;42.130;24.762;2023-06-26T06:57:37;99387.66;;;24.59;82.56
28630;BME280;15817;42.130;24.762;2023-06-26T07:00:11;99378.53;;;24.60;82.32
28630;BME280;15817;42.130;24.762;2023-06-26T07:02:41;99380.72;;;24.67;81.64
28630;BME280;15817;42.130;24.762;2023-06-26T07:05:07;99377.88;;;24.69;81.65
28630;BME280;15817;42.130;24.762;2023-06-26T07:07:35;99377.53;;;24.73;79.85
28630;BME280;15817;42.130;24.762;2023-06-26T07:10:06;99380.81;;;24.78;79.39
28630;BME280;15817;42.130;24.762;2023-06-26T07:12:35;99384.59;;;24.88;79.47
28630;BME280;15817;42.130;24.762;2023-06-26T07:15:02;99376.13;;;24.93;77.68
28630;BME280;15817;42.130;24.762;2023-06-26T07:17:30;99378.63;;;24.96;77.82
28630;BME280;15817;42.130;24.762;2023-06-26T07:19:58;99369.59;;;24.96;77.00
28630;BME280;15817;42.130;24.762;2023-06-26T07:22:24;99381.91;;;25.01;75.98
28630;BME280;15817;42.130;24.762;2023-06-26T07:24:50;99367.44;;;25.01;76.39
28630;BME280;15817;42.130;24.762;2023-06-26T07:27:16;99369.16;;;25.02;76.31
28630;BME280;15817;42.130;24.762;2023-06-26T07:29:43;99363.81;;;25.00;76.34
28630;BME280;15817;42.130;24.762;2023-06-26T07:32:10;99359.16;;;25.02;76.06
28630;BME280;15817;42.130;24.762;2023-06-26T07:34:36;99359.56;;;25.09;76.37
28630;BME280;15817;42.130;24.762;2023-06-26T07:37:04;99373.56;;;25.15;75.78
28630;BME280;15817;42.130;24.762;2023-06-26T07:39:35;99364.56;;;25.15;75.89
28630;BME280;15817;42.130;24.762;2023-06-26T07:42:01;99366.28;;;25.16;75.33
28630;BME280;15817;42.130;24.762;2023-06-26T07:44:27;99371.06;;;25.25;76.71
28630;BME280;15817;42.130;24.762;2023-06-26T07:46:52;99368.97;;;25.29;76.09
28630;BME280;15817;42.130;24.762;2023-06-26T07:49:26;99375.81;;;25.34;76.91
28630;BME280;15817;42.130;24.762;2023-06-26T07:51:57;99365.91;;;25.33;75.64
28630;BME280;15817;42.130;24.762;2023-06-26T07:54:26;99372.19;;;25.46;74.33
28630;BME280;15817;42.130;24.762;2023-06-26T07:57:04;99367.47;;;25.61;74.24
28630;BME280;15817;42.130;24.762;2023-06-26T07:59:32;99359.09;;;25.75;72.03
28630;BME280;15817;42.130;24.762;2023-06-26T08:02:00;99369.81;;;25.89;73.98
28630;BME280;15817;42.130;24.762;2023-06-26T08:04:28;99371.66;;;25.89;71.77
28630;BME280;15817;42.130;24.762;2023-06-26T08:07:08;99355.50;;;25.75;73.18
28630;BME280;15817;42.130;24.762;2023-06-26T08:09:41;99370.38;;;25.71;73.94
28630;BME280;15817;42.130;24.762;2023-06-26T08:12:25;99367.47;;;25.61;74.74
28630;BME280;15817;42.130;24.762;2023-06-26T08:15:12;99381.16;;;25.59;73.78
28630;BME280;15817;42.130;24.762;2023-06-26T08:17:40;99368.22;;;25.50;72.51
28630;BME280;15817;42.130;24.762;2023-06-26T08:20:07;99383.47;;;25.53;73.92
28630;BME280;15817;42.130;24.762;2023-06-26T08:22:34;99367.59;;;25.47;73.23
28630;BME280;15817;42.130;24.762;2023-06-26T08:25:03;99381.22;;;25.47;73.52
28630;BME280;15817;42.130;24.762;2023-06-26T08:27:31;99384.81;;;25.47;73.50
28630;BME280;15817;42.130;24.762;2023-06-26T08:29:57;99382.66;;;25.40;82.38
28630;BME280;15817;42.130;24.762;2023-06-26T08:32:33;99385.75;;;25.22;92.61
28630;BME280;15817;42.130;24.762;2023-06-26T08:34:59;99396.34;;;25.14;99.66
28630;BME280;15817;42.130;24.762;2023-06-26T08:37:24;99398.75;;;25.06;100.00
28630;BME280;15817;42.130;24.762;2023-06-26T08:39:50;99395.06;;;24.95;100.00
28630;BME280;15817;42.130;24.762;2023-06-26T08:42:16;99381.22;;;24.85;100.00
28630;BME280;15817;42.130;24.762;2023-06-26T08:44:45;99384.94;;;24.84;100.00
28630;BME280;15817;42.130;24.762;2023-06-26T08:47:11;99382.56;;;24.79;100.00
28630;BME280;15817;42.130;24.762;2023-06-26T08:50:12;99375.25;;;24.80;100.00
28630;BME280;15817;42.130;24.762;2023-06-26T08:53:00;99365.25;;;24.80;100.00
28630;BME280;15817;42.130;24.762;2023-06-26T08:55:35;99361.09;;;24.87;100.00
28630;BME280;15817;42.130;24.762;2023-06-26T08:58:08;99361.53;;;24.94;100.00
28630;BME280;15817;42.130;24.762;2023-06-26T09:00:38;99360.13;;;25.01;100.00
28630;BME280;15817;42.130;24.762;2023-06-26T09:03:15;99356.84;;;25.09;100.00
28630;BME280;15817;42.130;24.762;2023-06-26T09:05:43;99357.56;;;25.23;100.00
28630;BME280;15817;42.130;24.762;2023-06-26T09:08:09;99358.41;;;25.84;100.00
28630;BME280;15817;42.130;24.762;2023-06-26T09:10:35;99363.06;;;26.06;100.00
28630;BME280;15817;42.130;24.762;2023-06-26T09:13:02;99350.84;;;26.23;96.49
28630;BME280;15817;42.130;24.762;2023-06-26T09:15:37;99371.00;;;26.89;94.54
28630;BME280;15817;42.130;24.762;2023-06-26T09:18:04;99364.25;;;26.94;87.78
28630;BME280;15817;42.130;24.762;2023-06-26T09:20:31;99351.44;;;26.73;86.66
28630;BME280;15817;42.130;24.762;2023-06-26T09:22:59;99348.47;;;27.09;86.16
28630;BME280;15817;42.130;24.762;2023-06-26T09:25:26;99342.69;;;27.57;78.50
28630;BME280;15817;42.130;24.762;2023-06-26T09:27:52;99334.22;;;27.92;76.34
28630;BME280;15817;42.130;24.762;2023-06-26T09:30:19;99342.84;;;28.29;71.06
28630;BME280;15817;42.130;24.762;2023-06-26T09:32:46;99336.09;;;28.54;73.33
28630;BME280;15817;42.130;24.762;2023-06-26T09:35:20;99362.63;;;28.00;74.12
28630;BME280;15817;42.130;24.762;2023-06-26T09:37:46;99351.41;;;27.28;77.62
28630;BME280;15817;42.130;24.762;2023-06-26T09:40:13;99351.31;;;26.74;85.18
28630;BME280;15817;42.130;24.762;2023-06-26T09:42:42;99355.88;;;26.40;92.27
28630;BME280;15817;42.130;24.762;2023-06-26T09:45:18;99364.69;;;26.20;94.41
28630;BME280;15817;42.130;24.762;2023-06-26T09:47:44;99365.41;;;26.11;96.21
28630;BME280;15817;42.130;24.762;2023-06-26T09:50:23;99365.81;;;26.06;97.85
28630;BME280;15817;42.130;24.762;2023-06-26T09:52:51;99367.66;;;26.06;97.74
28630;BME280;15817;42.130;24.762;2023-06-26T09:55:19;99377.38;;;25.97;99.06
28630;BME280;15817;42.130;24.762;2023-06-26T09:57:48;99382.34;;;25.92;98.49
28630;BME280;15817;42.130;24.762;2023-06-26T10:00:15;99372.41;;;25.91;99.30
28630;BME280;15817;42.130;24.762;2023-06-26T10:02:44;99373.06;;;25.94;97.25
28630;BME280;15817;42.130;24.762;2023-06-26T10:05:12;99378.63;;;25.93;95.95
28630;BME280;15817;42.130;24.762;2023-06-26T10:07:39;99375.59;;;25.85;90.65
28630;BME280;15817;42.130;24.762;2023-06-26T10:10:17;99361.47;;;25.80;91.69
28630;BME280;15817;42.130;24.762;2023-06-26T10:12:54;99358.88;;;25.78;91.38
28630;BME280;15817;42.130;24.762;2023-06-26T10:15:35;99355.75;;;25.72;92.03
28630;BME280;15817;42.130;24.762;2023-06-26T10:18:02;99353.59;;;25.64;94.77
28630;BME280;15817;42.130;24.762;2023-06-26T10:20:31;99348.16;;;25.64;96.81
28630;BME280;15817;42.130;24.762;2023-06-26T10:23:00;99343.56;;;25.65;96.72
28630;BME280;15817;42.130;24.762;2023-06-26T10:25:29;99347.81;;;25.69;97.17
28630;BME280;15817;42.130;24.762;2023-06-26T10:27:58;99346.97;;;25.79;97.43
28630;BME280;15817;42.130;24.762;2023-06-26T10:30:30;99342.06;;;25.84;93.55
28630;BME280;15817;42.130;24.762;2023-06-26T10:32:57;99344.22;;;26.03;94.32
28630;BME280;15817;42.130;24.762;2023-06-26T10:35:25;99334.84;;;26.18;92.46
28630;BME280;15817;42.130;24.762;2023-06-26T10:38:00;99339.88;;;26.69;92.62
28630;BME280;15817;42.130;24.762;2023-06-26T10:40:45;99347.03;;;27.37;91.37
28630;BME280;15817;42.130;24.762;2023-06-26T10:43:15;99331.19;;;27.95;87.44
28630;BME280;15817;42.130;24.762;2023-06-26T10:45:45;99329.38;;;28.37;81.54
28630;BME280;15817;42.130;24.762;2023-06-26T10:48:15;99320.19;;;28.68;80.40
28630;BME280;15817;42.130;24.762;2023-06-26T10:50:54;99323.84;;;28.78;76.26
28630;BME280;15817;42.130;24.762;2023-06-26T10:53:26;99316.09;;;28.63;69.59
28630;BME280;15817;42.130;24.762;2023-06-26T10:55:59;99317.53;;;28.88;69.69
28630;BME280;15817;42.130;24.762;2023-06-26T11:01:28;99302.94;;;28.77;67.67
28630;BME280;15817;42.130;24.762;2023-06-26T11:04:05;99322.03;;;28.98;64.43
28630;BME280;15817;42.130;24.762;2023-06-26T11:06:32;99307.09;;;29.12;61.99
28630;BME280;15817;42.130;24.762;2023-06-26T11:09:14;99312.28;;;29.05;61.96
28630;BME280;15817;42.130;24.762;2023-06-26T11:14:25;99301.88;;;29.49;68.03
28630;BME280;15817;42.130;24.762;2023-06-26T11:16:52;99294.97;;;29.64;69.53
28630;BME280;15817;42.130;24.762;2023-06-26T11:19:20;99300.84;;;29.79;69.47
28630;BME280;15817;42.130;24.762;2023-06-26T11:21:52;99298.97;;;29.79;68.30
28630;BME280;15817;42.130;24.762;2023-06-26T11:24:25;99289.41;;;29.26;69.70
28630;BME280;15817;42.130;24.762;2023-06-26T11:26:51;99298.63;;;29.25;69.97
28630;BME280;15817;42.130;24.762;2023-06-26T11:29:17;99280.91;;;29.19;70.31
28630;BME280;15817;42.130;24.762;2023-06-26T11:31:43;99292.06;;;28.97;71.60
28630;BME280;15817;42.130;24.762;2023-06-26T11:34:10;99302.63;;;29.11;69.28
28630;BME280;15817;42.130;24.762;2023-06-26T11:36:57;99296.38;;;28.90;69.26
28630;BME280;15817;42.130;24.762;2023-06-26T11:39:23;99289.88;;;28.81;68.86
28630;BME280;15817;42.130;24.762;2023-06-26T11:41:54;99290.66;;;28.41;71.34
28630;BME280;15817;42.130;24.762;2023-06-26T11:44:21;99292.22;;;28.14;74.39
28630;BME280;15817;42.130;24.762;2023-06-26T11:46:53;99298.13;;;27.98;75.01
28630;BME280;15817;42.130;24.762;2023-06-26T11:49:21;99295.84;;;27.82;76.15
28630;BME280;15817;42.130;24.762;2023-06-26T11:51:48;99296.56;;;27.63;77.61
28630;BME280;15817;42.130;24.762;2023-06-26T11:54:14;99291.38;;;27.49;80.60
28630;BME280;15817;42.130;24.762;2023-06-26T11:56:40;99292.41;;;27.37;82.98
28630;BME280;15817;42.130;24.762;2023-06-26T11:59:12;99286.97;;;27.26;81.12
28630;BME280;15817;42.130;24.762;2023-06-26T12:02:08;99292.69;;;27.34;79.24
28630;BME280;15817;42.130;24.762;2023-06-26T12:04:40;99295.53;;;27.32;82.42
28630;BME280;15817;42.130;24.762;2023-06-26T12:07:09;99304.19;;;27.37;82.46
28630;BME280;15817;42.130;24.762;2023-06-26T12:09:46;99295.91;;;27.28;84.01
28630;BME280;15817;42.130;24.762;2023-06-26T12:12:14;99302.03;;;27.20;78.91
28630;BME280;15817;42.130;24.762;2023-06-26T12:14:40;99303.78;;;27.21;79.32
28630;BME280;15817;42.130;24.762;2023-06-26T12:17:13;99306.03;;;27.48;80.28
28630;BME280;15817;42.130;24.762;2023-06-26T12:19:47;99296.75;;;28.03;77.72
28630;BME280;15817;42.130;24.762;2023-06-26T12:22:19;99303.19;;;28.44;78.47
28630;BME280;15817;42.130;24.762;2023-06-26T12:24:49;99302.50;;;28.72;74.71
28630;BME280;15817;42.130;24.762;2023-06-26T12:27:25;99312.69;;;29.01;73.60
28630;BME280;15817;42.130;24.762;2023-06-26T12:29:54;99308.16;;;28.80;71.43
28630;BME280;15817;42.130;24.762;2023-06-26T12:32:24;99318.75;;;28.43;74.38
28630;BME280;15817;42.130;24.762;2023-06-26T12:34:50;99322.25;;;28.25;73.10
28630;BME280;15817;42.130;24.762;2023-06-26T12:37:16;99319.16;;;28.18;72.31
28630;BME280;15817;42.130;24.762;2023-06-26T12:39:58;99322.78;;;28.19;71.70
28630;BME280;15817;42.130;24.762;2023-06-26T12:42:26;99329.75;;;28.11;72.06
28630;BME280;15817;42.130;24.762;2023-06-26T12:44:54;99330.06;;;27.97;71.05
28630;BME280;15817;42.130;24.762;2023-06-26T12:47:28;99327.16;;;27.89;70.64
28630;BME280;15817;42.130;24.762;2023-06-26T12:49:54;99335.72;;;27.85;70.33
28630;BME280;15817;42.130;24.762;2023-06-26T12:52:50;99329.00;;;27.89;70.63
28630;BME280;15817;42.130;24.762;2023-06-26T12:55:32;99351.56;;;28.02;68.91
28630;BME280;15817;42.130;24.762;2023-06-26T12:58:12;99343.72;;;27.77;75.27
28630;BME280;15817;42.130;24.762;2023-06-26T13:00:38;99356.34;;;27.46;77.37
28630;BME280;15817;42.130;24.762;2023-06-26T13:03:07;99364.19;;;27.28;79.16
28630;BME280;15817;42.130;24.762;2023-06-26T13:05:44;99374.16;;;27.07;84.91
28630;BME280;15817;42.130;24.762;2023-06-26T13:08:16;99374.88;;;26.64;97.36